createdAt,value
2023-09-07T00:01:49.302Z,100271.94
2023-09-07T00:06:52.540Z,100270.38
2023-09-07T00:11:55.756Z,100276.00
2023-09-07T00:17:00.460Z,100268.41
2023-09-07T00:22:04.192Z,100261.03
2023-09-07T00:27:09.071Z,100254.25
2023-09-07T00:32:13.737Z,100257.94
2023-09-07T00:37:17.035Z,100264.97
2023-09-07T00:42:20.239Z,100260.75
2023-09-07T00:47:25.174Z,100264.00
2023-09-07T00:52:29.556Z,100265.72
2023-09-07T00:57:32.990Z,100267.09
2023-09-07T01:02:38.248Z,100263.88
2023-09-07T01:07:48.580Z,100261.72
2023-09-07T01:12:51.846Z,100254.81
2023-09-07T01:18:07.032Z,100250.56
2023-09-07T01:23:18.971Z,100263.84
2023-09-07T01:28:23.226Z,100258.72
2023-09-07T01:33:26.242Z,100262.72
2023-09-07T01:38:31.221Z,100270.72
2023-09-07T01:43:36.171Z,100262.16
2023-09-07T01:48:39.445Z,100263.94
2023-09-07T01:53:44.070Z,100262.53
2023-09-07T01:58:47.325Z,100253.09
2023-09-07T02:03:50.537Z,100243.03
2023-09-07T02:08:55.174Z,100237.09
2023-09-07T02:13:58.441Z,100244.97
2023-09-07T02:19:06.521Z,100242.00
2023-09-07T02:24:11.266Z,100242.00
2023-09-07T02:29:14.639Z,100236.91
2023-09-07T02:34:17.905Z,100239.59
2023-09-07T02:39:22.548Z,100250.56
2023-09-07T02:44:25.782Z,100251.00
2023-09-07T02:49:28.985Z,100248.41
2023-09-07T02:54:33.594Z,100244.47
2023-09-07T02:59:36.854Z,100247.19
2023-09-07T03:04:40.105Z,100245.50
2023-09-07T03:09:45.884Z,100246.16
2023-09-07T03:14:49.766Z,100239.31
2023-09-07T03:19:52.980Z,100246.06
2023-09-07T03:24:57.638Z,100246.28
2023-09-07T03:30:01.076Z,100252.53
2023-09-07T03:35:08.238Z,100250.50
2023-09-07T03:40:13.318Z,100240.06
2023-09-07T03:45:16.560Z,100239.06
2023-09-07T03:50:19.897Z,100240.69
2023-09-07T03:55:24.949Z,100236.56
2023-09-07T04:00:28.157Z,100235.44
2023-09-07T04:05:31.437Z,100240.13
2023-09-07T04:10:39.415Z,100238.16
2023-09-07T04:15:45.870Z,100234.75
2023-09-07T04:20:50.088Z,100227.09
2023-09-07T04:25:57.266Z,100232.69
2023-09-07T04:31:01.263Z,100231.88
2023-09-07T04:36:10.510Z,100234.84
2023-09-07T04:41:16.110Z,100224.53
2023-09-07T04:46:22.222Z,100229.69
2023-09-07T04:51:26.963Z,100231.34
2023-09-07T04:56:31.656Z,100227.75
2023-09-07T05:01:34.942Z,100235.97
2023-09-07T05:06:39.887Z,100237.50
2023-09-07T05:11:44.562Z,100240.41
2023-09-07T05:16:47.776Z,100240.75
2023-09-07T05:21:51.289Z,100246.44
2023-09-07T05:26:56.012Z,100246.28
2023-09-07T05:32:01.179Z,100259.81
2023-09-07T05:37:06.758Z,100252.56
2023-09-07T05:42:11.416Z,100257.88
2023-09-07T05:47:15.896Z,100265.34
2023-09-07T05:52:19.436Z,100262.94
2023-09-07T05:57:24.095Z,100260.41
2023-09-07T06:02:27.490Z,100268.28
2023-09-07T06:07:30.723Z,100273.06
2023-09-07T06:12:35.668Z,100284.59
2023-09-07T06:17:39.067Z,100286.34
2023-09-07T06:22:42.533Z,100298.50
2023-09-07T06:27:47.188Z,100302.88
2023-09-07T06:32:52.573Z,100302.00
2023-09-07T06:37:56.364Z,100302.06
2023-09-07T06:43:01.811Z,100295.31
2023-09-07T06:48:05.459Z,100289.38
2023-09-07T06:53:09.563Z,100289.13
2023-09-07T06:58:14.308Z,100295.78
2023-09-07T07:03:17.615Z,100294.81
2023-09-07T07:08:21.003Z,100292.00
2023-09-07T07:13:25.669Z,100297.16
2023-09-07T07:18:29.159Z,100282.78
2023-09-07T07:23:33.383Z,100283.53
2023-09-07T07:28:38.248Z,100287.56
2023-09-07T07:33:41.456Z,100285.47
2023-09-07T07:38:45.045Z,100285.22
2023-09-07T07:43:49.800Z,100284.22
2023-09-07T07:48:53.046Z,100282.91
2023-09-07T07:53:57.635Z,100277.69
2023-09-07T07:59:03.261Z,100301.13
2023-09-07T08:04:07.079Z,100294.88
2023-09-07T08:09:11.386Z,100296.53
2023-09-07T08:14:16.071Z,100296.44
2023-09-07T08:19:19.331Z,100300.28
2023-09-07T08:24:22.648Z,100294.81
2023-09-07T08:29:28.114Z,100296.13
2023-09-07T08:34:32.689Z,100304.41
2023-09-07T08:39:36.059Z,100304.69
2023-09-07T08:44:47.821Z,100314.09
2023-09-07T08:49:51.284Z,100313.69
2023-09-07T08:54:55.357Z,100315.44
2023-09-07T09:00:00.271Z,100313.31
2023-09-07T09:05:03.990Z,100310.47
2023-09-07T09:10:08.732Z,100295.72
2023-09-07T09:15:16.256Z,100304.38
2023-09-07T09:20:24.612Z,100301.66
2023-09-07T09:25:28.717Z,100295.31
2023-09-07T09:30:34.436Z,100290.13
2023-09-07T09:35:37.878Z,100292.91
2023-09-07T09:40:41.526Z,100283.97
2023-09-07T09:45:47.345Z,100279.38
2023-09-07T09:50:52.529Z,100274.94
2023-09-07T09:55:56.831Z,100283.00
2023-09-07T10:01:07.777Z,100283.69
2023-09-07T10:06:12.342Z,100275.31
2023-09-07T10:11:15.855Z,100283.09
2023-09-07T10:16:21.322Z,100282.38
2023-09-07T10:21:29.205Z,100287.81
2023-09-07T10:26:32.582Z,100277.78
2023-09-07T10:31:53.484Z,100277.88
2023-09-07T10:36:59.965Z,100268.06
2023-09-07T10:42:04.541Z,100267.94
2023-09-07T10:47:09.639Z,100270.94
2023-09-07T10:52:13.695Z,100259.56
2023-09-07T10:57:23.318Z,100257.31
2023-09-07T11:02:28.747Z,100254.25
2023-09-07T11:07:33.030Z,100249.50
2023-09-07T11:12:40.616Z,100245.13
2023-09-07T11:17:48.163Z,100238.75
2023-09-07T11:23:04.712Z,100238.31
2023-09-07T11:28:10.265Z,100229.53
2023-09-07T11:33:18.766Z,100224.56
2023-09-07T11:38:22.199Z,100216.66
2023-09-07T11:43:26.217Z,100217.75
2023-09-07T11:48:31.220Z,100216.00
2023-09-07T11:53:35.799Z,100210.16
2023-09-07T11:58:39.960Z,100207.69
2023-09-07T12:03:45.097Z,100203.84
2023-09-07T12:09:02.790Z,100196.59
2023-09-07T12:14:07.396Z,100193.09
2023-09-07T12:19:12.499Z,100190.34
2023-09-07T12:24:17.969Z,100186.50
2023-09-07T12:29:22.468Z,100182.16
2023-09-07T12:34:28.573Z,100172.72
2023-09-07T12:39:34.017Z,100165.19
2023-09-07T12:44:37.900Z,100159.34
2023-09-07T12:49:43.375Z,100155.59
2023-09-07T12:54:46.995Z,100155.91
2023-09-07T12:59:51.550Z,100157.09
2023-09-07T13:04:58.610Z,100160.16
2023-09-07T13:10:04.123Z,100150.75
2023-09-07T13:15:09.693Z,100136.38
2023-09-07T13:20:15.833Z,100129.31
2023-09-07T13:25:20.512Z,100123.41
2023-09-07T13:30:25.602Z,100127.78
2023-09-07T13:35:32.814Z,100124.72
2023-09-07T13:40:36.935Z,100120.94
2023-09-07T13:45:41.896Z,100116.97
2023-09-07T13:50:46.788Z,100111.41
2023-09-07T13:55:51.952Z,100106.56
2023-09-07T14:00:55.315Z,100109.94
2023-09-07T14:06:00.962Z,100098.34
2023-09-07T14:11:04.334Z,100112.31
2023-09-07T14:16:08.817Z,100105.31
2023-09-07T14:21:13.622Z,100100.91
2023-09-07T14:26:17.955Z,100094.69
2023-09-07T14:31:21.250Z,100099.75
2023-09-07T14:36:26.111Z,100098.47
2023-09-07T14:41:31.192Z,100109.31
2023-09-07T14:46:35.206Z,100107.22
2023-09-07T14:51:39.873Z,100100.13
2023-09-07T14:56:43.175Z,100105.91
2023-09-07T15:01:54.837Z,100113.22
2023-09-07T15:07:04.043Z,100115.22
2023-09-07T15:12:12.881Z,100111.25
2023-09-07T15:17:16.546Z,100112.56
2023-09-07T15:22:22.167Z,100117.72
2023-09-07T15:27:25.959Z,100115.97
2023-09-07T15:32:30.226Z,100124.28
2023-09-07T15:37:36.924Z,100112.69
2023-09-07T15:42:40.204Z,100130.59
2023-09-07T15:47:43.180Z,100121.97
2023-09-07T15:52:48.950Z,100126.75
2023-09-07T15:57:52.695Z,100118.34
2023-09-07T16:02:57.073Z,100122.19
2023-09-07T16:08:01.989Z,100113.03
2023-09-07T16:13:05.524Z,100131.25
2023-09-07T16:18:09.161Z,100124.75
2023-09-07T16:23:14.305Z,100140.22
2023-09-07T16:28:18.030Z,100131.56
2023-09-07T16:33:22.932Z,100148.50
2023-09-07T16:38:27.681Z,100158.16
2023-09-07T16:43:30.957Z,100166.84
2023-09-07T16:48:35.494Z,100167.75
2023-09-07T16:53:40.559Z,100164.94
2023-09-07T16:59:08.685Z,100171.56
2023-09-07T17:04:08.016Z,100177.00
2023-09-07T17:09:14.222Z,100180.63
2023-09-07T17:14:17.995Z,100183.34
2023-09-07T17:19:21.884Z,100197.91
2023-09-07T17:24:26.739Z,100199.66
2023-09-07T17:29:30.383Z,100203.19
2023-09-07T17:34:35.909Z,100217.22
2023-09-07T17:39:40.609Z,100215.53
2023-09-07T17:44:44.062Z,100228.91
2023-09-07T17:49:47.541Z,100229.88
2023-09-07T17:54:54.013Z,100229.38
2023-09-07T17:59:58.001Z,100219.91
2023-09-07T18:05:01.497Z,100225.78
2023-09-07T18:10:09.092Z,100219.22
2023-09-07T18:15:12.814Z,100230.13
2023-09-07T18:20:16.652Z,100240.94
2023-09-07T18:25:21.761Z,100244.31
2023-09-07T18:30:25.595Z,100247.38
2023-09-07T18:35:28.981Z,100248.47
2023-09-07T18:40:34.142Z,100242.75
2023-09-07T18:45:37.640Z,100246.63
2023-09-07T18:50:40.919Z,100252.03
2023-09-07T18:55:45.600Z,100262.34
2023-09-07T19:00:48.893Z,100261.78
2023-09-07T19:05:52.911Z,100258.88
2023-09-07T19:10:57.799Z,100257.88
2023-09-07T19:16:01.451Z,100260.03
2023-09-07T19:21:17.361Z,100255.13
2023-09-07T19:26:30.338Z,100260.03
2023-09-07T19:31:34.025Z,100272.41
2023-09-07T19:36:38.257Z,100274.31
2023-09-07T19:41:43.068Z,100266.91
2023-09-07T19:46:46.430Z,100274.34
2023-09-07T19:51:49.759Z,100289.81
2023-09-07T19:56:55.204Z,100289.88
2023-09-07T20:01:59.686Z,100289.50
2023-09-07T20:07:04.662Z,100298.88
2023-09-07T20:12:10.120Z,100303.81
2023-09-07T20:17:13.503Z,100297.19
2023-09-07T20:22:17.612Z,100304.56
2023-09-07T20:27:22.311Z,100310.53
2023-09-07T20:32:25.738Z,100315.09
2023-09-07T20:37:29.845Z,100313.69
2023-09-07T20:42:35.021Z,100310.47
2023-09-07T20:47:38.306Z,100319.88
2023-09-07T20:52:43.531Z,100326.84
2023-09-07T20:57:50.686Z,100328.59
2023-09-07T21:02:54.120Z,100327.88
2023-09-07T21:07:57.970Z,100334.13
2023-09-07T21:13:02.656Z,100331.19
2023-09-07T21:18:06.612Z,100336.00
2023-09-07T21:23:11.033Z,100346.25
2023-09-07T21:28:16.418Z,100363.50
2023-09-07T21:33:20.057Z,100361.41
2023-09-07T21:38:23.298Z,100370.19
2023-09-07T21:43:29.080Z,100357.72
2023-09-07T21:48:33.416Z,100355.75
2023-09-07T21:53:40.572Z,100363.59
2023-09-07T21:58:45.275Z,100360.34
2023-09-07T22:03:49.699Z,100362.03
2023-09-07T22:08:53.552Z,100355.50
2023-09-07T22:13:58.499Z,100357.03
2023-09-07T22:19:01.990Z,100356.91
2023-09-07T22:24:05.833Z,100363.31
2023-09-07T22:29:11.028Z,100363.31
2023-09-07T22:34:14.626Z,100368.94
2023-09-07T22:39:18.748Z,100369.22
2023-09-07T22:44:23.265Z,100369.75
2023-09-07T22:49:26.898Z,100372.22
2023-09-07T22:54:30.154Z,100364.97
2023-09-07T22:59:34.880Z,100368.53
2023-09-07T23:04:38.176Z,100371.94
2023-09-07T23:09:43.469Z,100369.22
2023-09-07T23:14:48.229Z,100379.91
2023-09-07T23:19:51.596Z,100360.53
2023-09-07T23:24:56.148Z,100360.25
2023-09-07T23:30:01.359Z,100359.50
2023-09-07T23:35:05.052Z,100363.16
2023-09-07T23:40:10.537Z,100371.78
2023-09-07T23:45:15.277Z,100371.75
2023-09-07T23:50:19.114Z,100378.09
2023-09-07T23:55:22.384Z,100369.09
